Time;durP1;ratioP1;P1;durP2;ratioP2;P2;SDS_P1;SDS_P2;PMS_P1;PMS_P2;Temp;Humidity;BMP_temperature;BMP_pressure;BME280_temperature;BME280_humidity;BME280_pressure;Samples;Min_cycle;Max_cycle;Signal;HPM_P1;HPM_P2
2022/10/09 00:01:24;;;;;;;14.07;7.23;;;;;;;;;;5156856;27;20454;-73
2022/10/09 00:03:53;;;;;;;12.30;7.30;;;;;;;;;;5156648;27;20463;-73
2022/10/09 00:06:21;;;;;;;9.17;6.80;;;;;;;;;;5156479;27;20870;-73
2022/10/09 00:08:48;;;;;;;16.13;7.07;;;;;;;;;;5156585;27;20432;-73
2022/10/09 00:11:16;;;;;;;15.47;6.53;;;;;;;;;;5156416;27;20467;-73
2022/10/09 00:13:44;;;;;;;9.97;5.57;;;;;;;;;;5156276;27;20440;-73
2022/10/09 00:16:12;;;;;;;15.60;7.03;;;;;;;;;;5156582;27;20472;-73
2022/10/09 00:18:40;;;;;;;14.17;7.03;;;;;;;;;;5156636;27;20450;-73
2022/10/09 00:21:15;;;;;;;8.73;6.70;;;;;;;;;;5156411;27;20448;-73
2022/10/09 00:23:42;;;;;;;12.23;6.67;;;;;;;;;;5156054;27;20504;-73
2022/10/09 00:26:10;;;;;;;7.67;5.97;;;;;;;;;;5156351;27;20460;-73
2022/10/09 00:28:37;;;;;;;9.10;6.13;;;;;;;;;;5156118;27;20636;-73
2022/10/09 00:31:05;;;;;;;9.90;6.07;;;;;;;;;;5156156;27;20448;-73
2022/10/09 00:33:32;;;;;;;14.37;6.80;;;;;;;;;;5155854;27;20458;-73
2022/10/09 00:36:02;;;;;;;11.20;6.30;;;;;;;;;;5155831;27;20468;-73
2022/10/09 00:38:29;;;;;;;9.13;5.83;;;;;;;;;;5155903;27;20456;-73
2022/10/09 00:40:56;;;;;;;12.33;5.60;;;;;;;;;;5156002;27;20443;-73
2022/10/09 00:43:38;;;;;;;11.37;6.60;;;;;;;;;;5155605;27;20455;-72
2022/10/09 00:46:06;;;;;;;9.57;5.77;;;;;;;;;;5155767;27;20471;-73
2022/10/09 00:48:33;;;;;;;11.20;5.57;;;;;;;;;;5155545;27;20479;-72
2022/10/09 00:51:02;;;;;;;12.70;6.90;;;;;;;;;;5155573;27;20450;-73
2022/10/09 00:53:30;;;;;;;11.40;6.43;;;;;;;;;;5155677;27;20548;-72
2022/10/09 00:55:58;;;;;;;13.83;5.93;;;;;;;;;;5155209;27;20489;-73
2022/10/09 00:58:25;;;;;;;9.07;5.97;;;;;;;;;;5155701;27;20440;-73
2022/10/09 01:00:53;;;;;;;8.07;5.60;;;;;;;;;;5155575;27;20452;-73
2022/10/09 01:03:20;;;;;;;9.13;5.70;;;;;;;;;;5155505;27;20809;-73
2022/10/09 01:05:53;;;;;;;7.97;6.07;;;;;;;;;;5155184;27;20539;-73
2022/10/09 01:08:26;;;;;;;18.77;8.23;;;;;;;;;;5155284;27;20487;-73
2022/10/09 01:10:56;;;;;;;11.60;7.60;;;;;;;;;;5155263;27;20466;-73
2022/10/09 01:13:26;;;;;;;10.50;7.37;;;;;;;;;;5155272;27;20454;-72
2022/10/09 01:15:54;;;;;;;13.93;8.00;;;;;;;;;;5155260;27;20463;-73
2022/10/09 01:18:23;;;;;;;17.00;9.20;;;;;;;;;;5155212;27;20444;-73
2022/10/09 01:20:52;;;;;;;14.13;9.67;;;;;;;;;;5155037;27;20443;-73
2022/10/09 01:23:42;;;;;;;10.90;8.80;;;;;;;;;;5155057;27;20541;-73
2022/10/09 01:26:19;;;;;;;9.50;8.20;;;;;;;;;;5154970;27;20471;-73
2022/10/09 01:28:48;;;;;;;14.80;8.53;;;;;;;;;;5154997;27;20491;-74
2022/10/09 01:31:17;;;;;;;15.27;10.50;;;;;;;;;;5154917;27;20455;-73
2022/10/09 01:33:44;;;;;;;13.90;10.20;;;;;;;;;;5154649;27;20456;-72
2022/10/09 01:36:12;;;;;;;20.33;9.70;;;;;;;;;;5154827;27;20463;-73
2022/10/09 01:38:39;;;;;;;19.03;10.90;;;;;;;;;;5155100;27;20436;-73
2022/10/09 01:41:08;;;;;;;18.13;10.47;;;;;;;;;;5155106;27;20543;-73
2022/10/09 01:43:36;;;;;;;11.90;10.57;;;;;;;;;;5154286;27;20463;-72
2022/10/09 01:46:18;;;;;;;16.90;10.00;;;;;;;;;;5154676;27;20476;-73
2022/10/09 01:48:48;;;;;;;19.70;10.20;;;;;;;;;;5151262;27;20493;-72
2022/10/09 01:51:16;;;;;;;16.20;10.20;;;;;;;;;;5155184;27;20442;-73
2022/10/09 01:53:44;;;;;;;16.97;11.83;;;;;;;;;;5154425;27;20448;-73
2022/10/09 01:56:14;;;;;;;15.80;9.30;;;;;;;;;;5154833;27;20902;-73
2022/10/09 01:58:44;;;;;;;20.97;11.40;;;;;;;;;;5154539;27;20450;-73
2022/10/09 02:01:14;;;;;;;13.93;8.70;;;;;;;;;;5154678;27;20438;-72
2022/10/09 02:03:43;;;;;;;26.60;8.97;;;;;;;;;;5154670;27;20828;-73
2022/10/09 02:06:13;;;;;;;9.80;7.53;;;;;;;;;;5154520;27;20468;-73
2022/10/09 02:08:42;;;;;;;11.20;8.33;;;;;;;;;;5158275;27;20502;-72
2022/10/09 02:11:10;;;;;;;12.77;8.80;;;;;;;;;;5158827;27;20960;-72
2022/10/09 02:13:38;;;;;;;15.07;8.67;;;;;;;;;;5158600;27;20447;-73
2022/10/09 02:16:10;;;;;;;17.77;8.30;;;;;;;;;;5158912;27;20959;-73
2022/10/09 02:18:38;;;;;;;18.90;8.53;;;;;;;;;;5158881;27;20913;-72
2022/10/09 02:21:09;;;;;;;10.47;8.27;;;;;;;;;;5158981;27;20475;-73
2022/10/09 02:23:38;;;;;;;14.90;8.70;;;;;;;;;;5158724;27;20435;-72
2022/10/09 02:26:06;;;;;;;13.40;7.67;;;;;;;;;;5158515;27;20471;-73
2022/10/09 02:28:33;;;;;;;12.13;7.10;;;;;;;;;;5158299;27;20490;-72
2022/10/09 02:31:04;;;;;;;13.67;6.33;;;;;;;;;;5158779;27;20958;-72
2022/10/09 02:33:32;;;;;;;13.57;6.93;;;;;;;;;;5158575;27;20927;-72
2022/10/09 02:35:59;;;;;;;8.83;6.27;;;;;;;;;;5158382;27;20463;-73
2022/10/09 02:38:26;;;;;;;13.07;6.20;;;;;;;;;;5158612;27;20446;-72
2022/10/09 02:40:57;;;;;;;12.17;7.00;;;;;;;;;;5158356;27;20447;-72
2022/10/09 02:43:24;;;;;;;8.93;6.00;;;;;;;;;;5158042;27;20940;-72
2022/10/09 02:45:51;;;;;;;9.20;6.37;;;;;;;;;;5158117;27;20471;-73
2022/10/09 02:48:18;;;;;;;6.20;5.03;;;;;;;;;;5158489;27;20468;-73
2022/10/09 02:50:46;;;;;;;10.53;6.30;;;;;;;;;;5158053;27;21036;-72
2022/10/09 02:53:13;;;;;;;13.33;6.10;;;;;;;;;;5158239;27;20443;-73
2022/10/09 02:55:40;;;;;;;9.60;7.10;;;;;;;;;;5157678;27;20455;-72
2022/10/09 02:58:09;;;;;;;11.43;6.40;;;;;;;;;;5158055;27;20936;-73
2022/10/09 03:00:37;;;;;;;15.87;10.13;;;;;;;;;;5157722;27;20451;-73
2022/10/09 03:03:05;;;;;;;17.83;9.10;;;;;;;;;;5158129;27;20828;-73
2022/10/09 03:05:32;;;;;;;14.60;8.33;;;;;;;;;;5157787;27;20837;-72
2022/10/09 03:07:59;;;;;;;21.00;13.43;;;;;;;;;;5157977;27;20996;-72
2022/10/09 03:10:26;;;;;;;12.13;8.33;;;;;;;;;;5157737;27;20447;-73
2022/10/09 03:12:53;;;;;;;16.60;9.70;;;;;;;;;;5157532;27;20466;-72
2022/10/09 03:15:22;;;;;;;10.43;7.97;;;;;;;;;;5157339;27;20479;-73
2022/10/09 03:17:49;;;;;;;15.83;10.07;;;;;;;;;;5157099;27;20447;-73
2022/10/09 03:20:17;;;;;;;11.47;8.20;;;;;;;;;;5157619;27;20439;-72
2022/10/09 03:22:44;;;;;;;13.20;8.33;;;;;;;;;;5157467;27;20451;-73
2022/10/09 03:25:11;;;;;;;12.77;7.53;;;;;;;;;;5157227;27;20812;-73
2022/10/09 03:27:38;;;;;;;16.30;8.17;;;;;;;;;;5157281;27;20494;-73
2022/10/09 03:30:06;;;;;;;12.83;7.80;;;;;;;;;;5157799;27;20443;-73
2022/10/09 03:32:34;;;;;;;13.63;7.10;;;;;;;;;;5157237;27;20953;-73
2022/10/09 03:35:01;;;;;;;26.13;8.83;;;;;;;;;;5157348;27;20976;-72
2022/10/09 03:37:28;;;;;;;14.37;8.70;;;;;;;;;;5157205;27;20447;-72
2022/10/09 03:39:56;;;;;;;18.80;8.43;;;;;;;;;;5157550;27;20432;-72
2022/10/09 03:42:23;;;;;;;14.80;7.40;;;;;;;;;;5157147;27;20978;-72
2022/10/09 03:44:50;;;;;;;20.83;8.47;;;;;;;;;;5156438;27;20483;-72
2022/10/09 03:47:17;;;;;;;11.83;8.27;;;;;;;;;;5157397;27;20432;-72
2022/10/09 03:49:46;;;;;;;12.30;7.33;;;;;;;;;;5156912;27;20488;-72
2022/10/09 03:52:13;;;;;;;16.43;7.87;;;;;;;;;;5157008;27;20447;-72
2022/10/09 03:54:40;;;;;;;10.93;8.00;;;;;;;;;;5156773;27;20499;-72
2022/10/09 03:57:07;;;;;;;13.10;8.50;;;;;;;;;;5156977;27;20452;-72
2022/10/09 03:59:34;;;;;;;20.97;8.13;;;;;;;;;;5156870;27;20450;-73
2022/10/09 04:02:01;;;;;;;13.03;8.03;;;;;;;;;;5157079;27;20447;-72
2022/10/09 04:04:28;;;;;;;13.57;7.67;;;;;;;;;;5156681;27;20814;-73
2022/10/09 04:06:57;;;;;;;14.97;7.30;;;;;;;;;;5156672;27;20456;-72
2022/10/09 04:09:24;;;;;;;18.27;7.90;;;;;;;;;;5156476;27;20490;-72
2022/10/09 04:11:51;;;;;;;13.20;8.10;;;;;;;;;;5156615;27;20459;-72
2022/10/09 04:14:18;;;;;;;14.00;8.10;;;;;;;;;;5156546;27;20444;-72
2022/10/09 04:16:45;;;;;;;15.90;7.90;;;;;;;;;;5156735;27;20964;-72
2022/10/09 04:19:13;;;;;;;11.00;8.30;;;;;;;;;;5156414;27;20432;-72
2022/10/09 04:21:40;;;;;;;13.70;8.60;;;;;;;;;;5155867;27;20453;-73
2022/10/09 04:24:08;;;;;;;9.03;7.20;;;;;;;;;;5156305;27;20811;-72
2022/10/09 04:26:35;;;;;;;13.90;9.67;;;;;;;;;;5156472;27;20472;-72
2022/10/09 04:29:02;;;;;;;17.50;10.83;;;;;;;;;;5156075;27;21067;-72
2022/10/09 04:31:29;;;;;;;12.50;8.73;;;;;;;;;;5155572;27;20448;-72
2022/10/09 04:33:57;;;;;;;16.07;8.10;;;;;;;;;;5156104;27;20447;-72
2022/10/09 04:36:24;;;;;;;11.53;8.17;;;;;;;;;;5156003;27;20468;-72
2022/10/09 04:38:52;;;;;;;17.67;8.60;;;;;;;;;;5155861;27;20450;-72
2022/10/09 04:41:20;;;;;;;15.17;9.60;;;;;;;;;;5156223;27;20932;-72
2022/10/09 04:43:48;;;;;;;15.80;9.00;;;;;;;;;;5155607;27;20466;-72
2022/10/09 04:46:15;;;;;;;16.37;10.30;;;;;;;;;;5155909;27;20468;-72
2022/10/09 04:48:43;;;;;;;19.93;9.23;;;;;;;;;;5155669;27;20476;-72
2022/10/09 04:51:10;;;;;;;16.10;9.13;;;;;;;;;;5155927;27;20455;-72
2022/10/09 04:53:38;;;;;;;14.47;9.80;;;;;;;;;;5155610;27;20823;-72
2022/10/09 04:56:06;;;;;;;15.83;10.00;;;;;;;;;;5155596;27;20490;-72
2022/10/09 04:58:35;;;;;;;14.90;10.43;;;;;;;;;;5155585;27;20448;-72
2022/10/09 05:01:05;;;;;;;16.80;10.33;;;;;;;;;;5155874;27;20452;-72
2022/10/09 05:03:33;;;;;;;21.73;12.20;;;;;;;;;;5155249;27;20473;-72
2022/10/09 05:06:01;;;;;;;20.63;11.43;;;;;;;;;;5155324;27;20464;-72
2022/10/09 05:08:28;;;;;;;22.83;12.30;;;;;;;;;;5155443;27;20479;-73
2022/10/09 05:11:00;;;;;;;29.03;12.40;;;;;;;;;;5155237;27;20562;-72
2022/10/09 05:13:29;;;;;;;27.77;13.70;;;;;;;;;;5155597;27;20440;-72
2022/10/09 05:15:57;;;;;;;21.80;12.87;;;;;;;;;;5155519;27;20832;-72
2022/10/09 05:18:26;;;;;;;22.90;14.00;;;;;;;;;;5155102;27;20475;-73
2022/10/09 05:20:53;;;;;;;21.90;15.13;;;;;;;;;;5154633;27;20448;-72
2022/10/09 05:23:20;;;;;;;19.23;13.40;;;;;;;;;;5155347;27;20816;-73
2022/10/09 05:25:54;;;;;;;26.77;15.40;;;;;;;;;;5154765;27;20474;-72
2022/10/09 05:28:21;;;;;;;27.37;14.13;;;;;;;;;;5155001;27;20475;-72
2022/10/09 05:30:48;;;;;;;22.10;13.70;;;;;;;;;;5154923;27;20456;-72
2022/10/09 05:33:17;;;;;;;22.20;14.00;;;;;;;;;;5155215;27;20500;-72
2022/10/09 05:35:51;;;;;;;24.90;14.43;;;;;;;;;;5154564;27;20470;-72
2022/10/09 05:38:18;;;;;;;22.67;14.37;;;;;;;;;;5154896;27;20477;-72
2022/10/09 05:40:50;;;;;;;24.23;14.00;;;;;;;;;;5154657;27;20470;-72
2022/10/09 05:43:18;;;;;;;24.03;14.60;;;;;;;;;;5154831;27;20442;-72
2022/10/09 05:45:45;;;;;;;31.30;15.97;;;;;;;;;;5154727;27;20471;-72
2022/10/09 05:48:12;;;;;;;26.23;16.40;;;;;;;;;;5154774;27;20487;-72
2022/10/09 05:50:40;;;;;;;27.37;15.90;;;;;;;;;;5155017;27;20897;-72
2022/10/09 05:53:07;;;;;;;29.60;17.63;;;;;;;;;;5154810;27;20459;-72
2022/10/09 05:55:35;;;;;;;43.90;19.97;;;;;;;;;;5154498;27;20463;-73
2022/10/09 05:58:02;;;;;;;47.80;18.40;;;;;;;;;;5154640;27;20447;-73
2022/10/09 06:00:29;;;;;;;39.57;16.10;;;;;;;;;;5155092;27;20432;-72
2022/10/09 06:02:56;;;;;;;57.87;17.80;;;;;;;;;;5154580;27;20454;-72
2022/10/09 06:05:23;;;;;;;53.50;16.50;;;;;;;;;;5154262;27;20561;-72
2022/10/09 06:07:52;;;;;;;52.37;16.23;;;;;;;;;;5154722;27;20452;-72
2022/10/09 06:10:19;;;;;;;40.57;15.63;;;;;;;;;;5154743;27;20842;-72
2022/10/09 06:12:46;;;;;;;43.87;17.10;;;;;;;;;;5154414;27;20471;-72
2022/10/09 06:15:13;;;;;;;114.23;20.80;;;;;;;;;;5154239;27;20467;-72
2022/10/09 06:17:41;;;;;;;25.60;13.20;;;;;;;;;;5154743;27;20773;-72
2022/10/09 06:20:08;;;;;;;44.33;17.37;;;;;;;;;;5154017;27;20794;-72
2022/10/09 06:22:35;;;;;;;39.73;16.27;;;;;;;;;;5154414;27;20811;-72
2022/10/09 06:25:04;;;;;;;20.37;14.80;;;;;;;;;;5153499;27;20472;-72
2022/10/09 06:27:31;;;;;;;23.83;16.30;;;;;;;;;;5154389;27;20924;-72
2022/10/09 06:29:58;;;;;;;20.87;14.13;;;;;;;;;;5154000;27;20488;-72
2022/10/09 06:32:25;;;;;;;19.17;13.53;;;;;;;;;;5153888;27;20460;-72
2022/10/09 06:34:53;;;;;;;26.93;13.20;;;;;;;;;;5153525;27;20476;-72
2022/10/09 06:37:20;;;;;;;22.73;13.73;;;;;;;;;;5154253;27;20823;-72
2022/10/09 06:39:47;;;;;;;18.10;10.80;;;;;;;;;;5153707;27;20450;-72
2022/10/09 06:42:16;;;;;;;12.23;9.73;;;;;;;;;;5154251;27;20456;-72
2022/10/09 06:44:44;;;;;;;17.33;10.27;;;;;;;;;;5152207;27;20481;-72
2022/10/09 06:47:11;;;;;;;13.10;10.00;;;;;;;;;;5153865;27;20435;-73
2022/10/09 06:49:38;;;;;;;16.00;10.07;;;;;;;;;;5153804;27;20987;-73
2022/10/09 06:52:05;;;;;;;12.00;8.87;;;;;;;;;;5153710;27;20442;-72
2022/10/09 06:54:32;;;;;;;15.57;10.23;;;;;;;;;;5156680;27;20444;-72
2022/10/09 06:57:00;;;;;;;12.63;8.80;;;;;;;;;;5157922;27;20963;-73
2022/10/09 06:59:28;;;;;;;13.77;10.20;;;;;;;;;;5157571;27;20423;-72
2022/10/09 07:01:55;;;;;;;13.20;9.50;;;;;;;;;;5157557;27;20936;-72
2022/10/09 07:04:22;;;;;;;14.20;9.97;;;;;;;;;;5157202;27;20442;-73
2022/10/09 07:06:50;;;;;;;14.10;9.27;;;;;;;;;;5157526;27;20954;-72
2022/10/09 07:09:17;;;;;;;16.43;8.90;;;;;;;;;;5157768;27;20483;-72
2022/10/09 07:11:45;;;;;;;18.13;9.10;;;;;;;;;;5157140;27;20467;-72
2022/10/09 07:14:15;;;;;;;15.30;10.57;;;;;;;;;;5156851;27;20448;-72
2022/10/09 07:16:44;;;;;;;15.20;9.87;;;;;;;;;;5157488;27;20954;-72
2022/10/09 07:19:12;;;;;;;12.37;10.37;;;;;;;;;;5157607;27;20937;-72
2022/10/09 07:21:40;;;;;;;12.20;8.60;;;;;;;;;;5155190;27;20970;-72
2022/10/09 07:24:07;;;;;;;13.50;7.60;;;;;;;;;;5156728;27;20937;-73
2022/10/09 07:26:35;;;;;;;12.67;8.00;;;;;;;;;;5156945;27;20484;-72
2022/10/09 07:29:03;;;;;;;17.00;9.30;;;;;;;;;;5157272;27;20827;-72
2022/10/09 07:31:30;;;;;;;15.27;9.60;;;;;;;;;;5157227;27;20944;-73
2022/10/09 07:33:58;;;;;;;12.47;8.97;;;;;;;;;;5156177;27;20447;-72
2022/10/09 07:36:25;;;;;;;10.80;8.50;;;;;;;;;;5156795;27;20553;-72
2022/10/09 07:38:53;;;;;;;15.53;8.50;;;;;;;;;;5156876;27;20451;-72
2022/10/09 07:41:21;;;;;;;10.87;7.80;;;;;;;;;;5156770;27;20451;-72
2022/10/09 07:43:49;;;;;;;8.80;7.53;;;;;;;;;;5155213;27;20448;-72
2022/10/09 07:46:17;;;;;;;10.77;7.40;;;;;;;;;;5156832;27;20991;-72
2022/10/09 07:48:44;;;;;;;8.83;7.13;;;;;;;;;;5156534;27;20462;-72
2022/10/09 07:51:15;;;;;;;6.80;6.10;;;;;;;;;;5156713;27;20641;-73
2022/10/09 07:53:43;;;;;;;7.57;5.90;;;;;;;;;;5156399;27;20889;-73
2022/10/09 07:56:14;;;;;;;8.10;6.40;;;;;;;;;;5156802;27;20464;-72
2022/10/09 07:58:42;;;;;;;7.90;7.10;;;;;;;;;;5156479;27;20451;-72
2022/10/09 08:01:09;;;;;;;8.13;6.67;;;;;;;;;;5156612;27;20498;-72
2022/10/09 08:03:37;;;;;;;10.40;6.20;;;;;;;;;;5155744;27;20452;-73
2022/10/09 08:06:05;;;;;;;9.50;6.60;;;;;;;;;;5155141;27;20463;-72
2022/10/09 08:08:33;;;;;;;8.80;6.40;;;;;;;;;;5156240;27;20451;-72
2022/10/09 08:11:01;;;;;;;11.23;7.37;;;;;;;;;;5156260;27;20490;-72
2022/10/09 08:13:28;;;;;;;9.13;6.90;;;;;;;;;;5155692;27;20471;-72
2022/10/09 08:15:58;;;;;;;9.70;6.43;;;;;;;;;;5156417;27;20475;-73
2022/10/09 08:18:26;;;;;;;7.73;5.90;;;;;;;;;;5156387;27;20432;-72
2022/10/09 08:20:57;;;;;;;13.33;7.30;;;;;;;;;;5154469;27;21247;-72
2022/10/09 08:23:24;;;;;;;9.77;6.90;;;;;;;;;;5156058;27;20443;-72
2022/10/09 08:25:52;;;;;;;8.27;6.53;;;;;;;;;;5155584;27;20467;-72
2022/10/09 08:28:20;;;;;;;8.73;6.93;;;;;;;;;;5155896;27;20460;-73
2022/10/09 08:30:47;;;;;;;11.37;6.23;;;;;;;;;;5155772;27;20845;-72
2022/10/09 08:33:14;;;;;;;10.20;7.23;;;;;;;;;;5155684;27;20454;-73
2022/10/09 08:35:41;;;;;;;10.37;5.87;;;;;;;;;;5155423;27;20475;-73
2022/10/09 08:38:08;;;;;;;5.83;5.33;;;;;;;;;;5156060;27;20796;-73
2022/10/09 08:40:39;;;;;;;6.93;5.77;;;;;;;;;;5155719;27;20442;-72
2022/10/09 08:43:11;;;;;;;8.70;5.93;;;;;;;;;;5154967;27;20909;-72
2022/10/09 08:45:39;;;;;;;8.73;5.60;;;;;;;;;;5154979;27;20831;-72
2022/10/09 08:48:08;;;;;;;8.77;6.10;;;;;;;;;;5155574;27;20819;-73
2022/10/09 08:50:37;;;;;;;11.30;7.00;;;;;;;;;;5155731;27;20471;-73
2022/10/09 08:53:06;;;;;;;8.13;6.80;;;;;;;;;;5155817;27;20936;-72
2022/10/09 08:55:35;;;;;;;5.77;5.27;;;;;;;;;;5155079;27;20823;-73
2022/10/09 08:58:04;;;;;;;8.50;6.77;;;;;;;;;;5155377;27;20448;-73
2022/10/09 09:00:35;;;;;;;7.00;5.27;;;;;;;;;;5155634;27;20492;-73
2022/10/09 09:03:07;;;;;;;11.70;6.10;;;;;;;;;;5155408;27;20841;-73
2022/10/09 09:05:40;;;;;;;5.73;5.10;;;;;;;;;;5154611;27;21019;-73
2022/10/09 09:08:15;;;;;;;7.90;4.97;;;;;;;;;;5154835;27;20454;-73
2022/10/09 09:10:43;;;;;;;11.20;6.20;;;;;;;;;;5154261;27;20470;-73
2022/10/09 09:13:17;;;;;;;6.37;5.17;;;;;;;;;;5154669;27;20796;-73
2022/10/09 09:15:48;;;;;;;8.73;5.00;;;;;;;;;;5153452;27;20475;-73
2022/10/09 09:18:21;;;;;;;5.50;4.60;;;;;;;;;;5154892;27;21136;-73
2022/10/09 09:20:51;;;;;;;8.60;4.97;;;;;;;;;;5152776;27;20449;-73
2022/10/09 09:23:21;;;;;;;5.23;4.73;;;;;;;;;;5154166;27;20444;-72
2022/10/09 09:25:48;;;;;;;6.13;4.63;;;;;;;;;;5153816;27;20478;-72
2022/10/09 09:28:18;;;;;;;8.13;4.50;;;;;;;;;;5154138;27;20451;-72
2022/10/09 09:30:51;;;;;;;4.43;3.83;;;;;;;;;;5154041;27;20475;-73
2022/10/09 09:33:21;;;;;;;6.93;3.97;;;;;;;;;;5154211;27;20428;-73
2022/10/09 09:35:52;;;;;;;4.87;4.30;;;;;;;;;;5153676;27;20475;-72
2022/10/09 09:38:19;;;;;;;4.90;4.07;;;;;;;;;;5154417;27;20452;-72
2022/10/09 09:40:47;;;;;;;7.07;4.03;;;;;;;;;;5153957;27;20448;-72
2022/10/09 09:43:16;;;;;;;5.73;3.93;;;;;;;;;;5152376;27;20460;-72
2022/10/09 09:45:43;;;;;;;6.13;4.67;;;;;;;;;;5153290;27;20467;-73
2022/10/09 09:48:15;;;;;;;5.37;3.90;;;;;;;;;;5153932;27;20464;-73
2022/10/09 09:50:42;;;;;;;4.87;3.40;;;;;;;;;;5153850;27;20468;-73
2022/10/09 09:53:19;;;;;;;6.60;4.00;;;;;;;;;;5154060;27;20482;-72
2022/10/09 09:55:46;;;;;;;6.03;4.20;;;;;;;;;;5153161;27;20477;-73
2022/10/09 09:58:16;;;;;;;7.43;4.10;;;;;;;;;;5153858;27;20452;-73
2022/10/09 10:00:53;;;;;;;8.23;4.10;;;;;;;;;;5154054;27;20428;-72
2022/10/09 10:03:22;;;;;;;5.70;4.47;;;;;;;;;;5153682;27;20454;-72
2022/10/09 10:05:49;;;;;;;7.57;4.00;;;;;;;;;;5153521;27;20474;-72
2022/10/09 10:08:22;;;;;;;15.43;3.97;;;;;;;;;;5154023;27;20443;-73
2022/10/09 10:10:50;;;;;;;6.80;3.83;;;;;;;;;;5153721;27;20486;-73
2022/10/09 10:13:18;;;;;;;5.40;3.40;;;;;;;;;;5153553;27;20927;-73
2022/10/09 10:15:50;;;;;;;6.00;3.87;;;;;;;;;;5152955;27;20471;-74
2022/10/09 10:18:18;;;;;;;11.20;4.30;;;;;;;;;;5153896;27;21008;-72
2022/10/09 10:20:48;;;;;;;6.63;4.20;;;;;;;;;;5151781;27;20444;-72
2022/10/09 10:23:22;;;;;;;4.90;3.50;;;;;;;;;;5153633;27;20447;-73
2022/10/09 10:25:51;;;;;;;6.97;4.03;;;;;;;;;;5152897;27;20471;-73
2022/10/09 10:28:21;;;;;;;5.80;3.83;;;;;;;;;;5155189;27;20822;-73
2022/10/09 10:30:49;;;;;;;6.07;3.90;;;;;;;;;;5157496;27;20483;-73
2022/10/09 10:33:19;;;;;;;7.07;4.00;;;;;;;;;;5157882;27;20963;-73
2022/10/09 10:35:50;;;;;;;4.30;3.90;;;;;;;;;;5157099;27;20471;-73
2022/10/09 10:38:19;;;;;;;5.10;3.10;;;;;;;;;;5157506;27;20460;-73
2022/10/09 10:40:49;;;;;;;7.33;5.83;;;;;;;;;;5157461;27;20439;-73
2022/10/09 10:43:24;;;;;;;4.93;3.93;;;;;;;;;;5155907;27;20458;-73
2022/10/09 10:45:55;;;;;;;7.33;4.43;;;;;;;;;;5156928;27;20473;-73
2022/10/09 10:48:25;;;;;;;6.20;3.87;;;;;;;;;;5157415;27;20432;-72
2022/10/09 10:50:59;;;;;;;8.47;3.27;;;;;;;;;;5157509;27;20564;-73
2022/10/09 10:53:30;;;;;;;7.20;3.00;;;;;;;;;;5157250;27;20452;-73
2022/10/09 10:55:59;;;;;;;4.07;3.30;;;;;;;;;;5157226;27;20994;-73
2022/10/09 10:58:28;;;;;;;3.77;3.30;;;;;;;;;;5157130;27;20447;-73
2022/10/09 11:01:04;;;;;;;3.80;2.90;;;;;;;;;;5157450;27;20457;-73
2022/10/09 11:03:37;;;;;;;6.13;3.50;;;;;;;;;;5156564;27;20447;-72
2022/10/09 11:06:08;;;;;;;3.90;3.50;;;;;;;;;;5156956;27;20856;-72
2022/10/09 11:08:40;;;;;;;6.13;3.20;;;;;;;;;;5156821;27;20447;-73
2022/10/09 11:11:10;;;;;;;4.30;2.73;;;;;;;;;;5157202;27;20520;-73
2022/10/09 11:13:44;;;;;;;4.30;3.17;;;;;;;;;;5156550;27;20451;-72
2022/10/09 11:16:19;;;;;;;9.37;3.70;;;;;;;;;;5157102;27;20940;-73
2022/10/09 11:19:01;;;;;;;5.20;3.47;;;;;;;;;;5156955;27;20427;-72
2022/10/09 11:21:36;;;;;;;5.00;3.60;;;;;;;;;;5154695;27;20443;-73
2022/10/09 11:24:12;;;;;;;4.43;3.50;;;;;;;;;;5156120;27;20825;-73
2022/10/09 11:26:43;;;;;;;4.63;3.00;;;;;;;;;;5156875;27;20994;-73
2022/10/09 11:29:15;;;;;;;5.50;3.50;;;;;;;;;;5156720;27;20874;-72
2022/10/09 11:31:45;;;;;;;4.77;3.73;;;;;;;;;;5156339;27;21027;-73
2022/10/09 11:34:16;;;;;;;6.47;4.07;;;;;;;;;;5155813;27;20543;-73
2022/10/09 11:36:45;;;;;;;4.73;3.20;;;;;;;;;;5157132;27;20944;-73
2022/10/09 11:39:15;;;;;;;6.97;2.63;;;;;;;;;;5156146;27;20512;-73
2022/10/09 11:41:44;;;;;;;4.47;3.10;;;;;;;;;;5156277;27;20467;-72
2022/10/09 11:44:23;;;;;;;4.50;3.47;;;;;;;;;;5154235;27;20825;-73
2022/10/09 11:46:54;;;;;;;6.43;4.03;;;;;;;;;;5156551;27;20796;-73
2022/10/09 11:49:24;;;;;;;6.77;3.70;;;;;;;;;;5156282;27;20831;-73
2022/10/09 11:51:55;;;;;;;5.30;3.63;;;;;;;;;;5156335;27;20479;-73
2022/10/09 11:54:24;;;;;;;4.20;3.60;;;;;;;;;;5155526;27;20451;-73
2022/10/09 11:56:55;;;;;;;7.10;4.10;;;;;;;;;;5156598;27;20459;-73
2022/10/09 11:59:24;;;;;;;4.37;3.10;;;;;;;;;;5156411;27;20452;-73
2022/10/09 12:01:52;;;;;;;6.60;3.77;;;;;;;;;;5156330;27;20447;-73
2022/10/09 12:04:24;;;;;;;4.97;2.97;;;;;;;;;;5155645;27;20500;-73
2022/10/09 12:06:52;;;;;;;7.63;3.10;;;;;;;;;;5156540;27;20448;-72
2022/10/09 12:09:22;;;;;;;4.93;3.00;;;;;;;;;;5156463;27;20451;-72
2022/10/09 12:11:58;;;;;;;4.73;3.10;;;;;;;;;;5156112;27;20483;-73
2022/10/09 12:14:25;;;;;;;9.40;3.00;;;;;;;;;;5155497;27;20454;-73
2022/10/09 12:16:53;;;;;;;7.37;3.30;;;;;;;;;;5156487;27;20447;-73
2022/10/09 12:19:22;;;;;;;5.43;2.80;;;;;;;;;;5156200;27;20436;-72
2022/10/09 12:21:51;;;;;;;6.27;3.10;;;;;;;;;;5156009;27;20451;-73
2022/10/09 12:24:21;;;;;;;5.40;3.37;;;;;;;;;;5155259;27;20444;-73
2022/10/09 12:26:50;;;;;;;3.37;2.83;;;;;;;;;;5155856;27;20524;-73
2022/10/09 12:29:20;;;;;;;10.40;3.90;;;;;;;;;;5155987;27;20456;-73
2022/10/09 12:31:51;;;;;;;2.70;2.10;;;;;;;;;;5155698;27;20479;-73
2022/10/09 12:34:19;;;;;;;10.63;2.83;;;;;;;;;;5155126;27;20455;-72
2022/10/09 12:36:46;;;;;;;4.00;2.80;;;;;;;;;;5155849;27;20448;-73
2022/10/09 12:39:15;;;;;;;4.87;2.80;;;;;;;;;;5156023;27;20451;-73
2022/10/09 12:41:44;;;;;;;5.70;3.33;;;;;;;;;;5155836;27;20436;-73
2022/10/09 12:44:16;;;;;;;4.40;2.50;;;;;;;;;;5154190;27;20454;-73
2022/10/09 12:46:45;;;;;;;3.70;2.57;;;;;;;;;;5155493;27;20442;-73
2022/10/09 12:49:17;;;;;;;4.13;2.20;;;;;;;;;;5155922;27;20432;-72
2022/10/09 12:51:50;;;;;;;2.87;2.40;;;;;;;;;;5154667;27;20474;-72
2022/10/09 12:54:17;;;;;;;6.60;2.27;;;;;;;;;;5154718;27;20454;-72
2022/10/09 12:56:45;;;;;;;3.30;2.07;;;;;;;;;;5155275;27;20508;-73
2022/10/09 12:59:13;;;;;;;5.90;2.47;;;;;;;;;;5155314;27;20451;-73
2022/10/09 13:01:41;;;;;;;3.60;2.00;;;;;;;;;;5155310;27;20450;-73
2022/10/09 13:04:24;;;;;;;2.90;2.10;;;;;;;;;;5154764;27;20452;-73
2022/10/09 13:06:52;;;;;;;4.90;3.00;;;;;;;;;;5155293;27;20436;-73
2022/10/09 13:09:20;;;;;;;5.53;2.13;;;;;;;;;;5155523;27;20452;-72
2022/10/09 13:11:52;;;;;;;4.03;1.80;;;;;;;;;;5154867;27;20484;-73
2022/10/09 13:14:26;;;;;;;4.77;2.63;;;;;;;;;;5154317;27;20534;-72
2022/10/09 13:16:54;;;;;;;3.07;2.30;;;;;;;;;;5155328;27;20920;-72
2022/10/09 13:19:24;;;;;;;2.60;1.80;;;;;;;;;;5154571;27;20447;-72
2022/10/09 13:22:01;;;;;;;3.40;1.77;;;;;;;;;;5154656;27;20834;-73
2022/10/09 13:24:29;;;;;;;4.13;2.37;;;;;;;;;;5154031;27;20447;-73
2022/10/09 13:26:56;;;;;;;3.73;1.97;;;;;;;;;;5155040;27;20503;-72
2022/10/09 13:29:23;;;;;;;2.73;1.40;;;;;;;;;;5155125;27;20436;-73
2022/10/09 13:31:50;;;;;;;4.20;2.10;;;;;;;;;;5155161;27;20855;-73
2022/10/09 13:34:18;;;;;;;4.83;1.97;;;;;;;;;;5153905;27;20454;-72
2022/10/09 13:36:46;;;;;;;2.40;2.00;;;;;;;;;;5154576;27;20800;-73
2022/10/09 13:39:14;;;;;;;3.67;1.83;;;;;;;;;;5154914;27;20447;-72
2022/10/09 13:41:42;;;;;;;6.10;2.60;;;;;;;;;;5154839;27;20955;-72
2022/10/09 13:44:10;;;;;;;5.67;2.27;;;;;;;;;;5153276;27;20456;-73
2022/10/09 13:46:37;;;;;;;3.83;2.30;;;;;;;;;;5154548;27;20963;-72
2022/10/09 13:49:04;;;;;;;3.43;2.47;;;;;;;;;;5154455;27;20439;-72
2022/10/09 13:51:31;;;;;;;5.67;2.00;;;;;;;;;;5154384;27;20487;-73
2022/10/09 13:54:00;;;;;;;5.93;2.73;;;;;;;;;;5154031;27;20448;-73
2022/10/09 13:56:27;;;;;;;4.33;2.53;;;;;;;;;;5154604;27;20994;-72
2022/10/09 13:58:55;;;;;;;4.23;2.30;;;;;;;;;;5154515;27;20483;-73
2022/10/09 14:01:22;;;;;;;3.00;2.00;;;;;;;;;;5154595;27;20955;-73
2022/10/09 14:03:49;;;;;;;4.70;2.63;;;;;;;;;;5153563;27;20452;-72
2022/10/09 14:06:16;;;;;;;3.10;1.87;;;;;;;;;;5154537;27;20467;-73
2022/10/09 14:08:43;;;;;;;2.70;1.93;;;;;;;;;;5153960;27;20452;-72
2022/10/09 14:11:12;;;;;;;2.90;1.90;;;;;;;;;;5153982;27;20497;-72
2022/10/09 14:13:39;;;;;;;2.60;2.10;;;;;;;;;;5153476;27;20456;-72
2022/10/09 14:16:06;;;;;;;3.90;2.20;;;;;;;;;;5153993;27;20550;-73
2022/10/09 14:18:34;;;;;;;2.83;1.80;;;;;;;;;;5154423;27;20443;-73
2022/10/09 14:21:01;;;;;;;4.00;2.23;;;;;;;;;;5152670;27;20452;-72
2022/10/09 14:23:28;;;;;;;3.63;2.03;;;;;;;;;;5153328;27;20928;-72
2022/10/09 14:25:57;;;;;;;8.10;2.50;;;;;;;;;;5154279;27;20478;-72
2022/10/09 14:28:25;;;;;;;7.10;3.10;;;;;;;;;;5154206;27;20504;-73
2022/10/09 14:30:52;;;;;;;5.70;2.20;;;;;;;;;;5154211;27;20443;-72
2022/10/09 14:33:19;;;;;;;2.17;1.47;;;;;;;;;;5154015;27;20455;-72
2022/10/09 14:35:47;;;;;;;6.23;2.30;;;;;;;;;;5153731;27;21059;-72
2022/10/09 14:38:14;;;;;;;2.33;1.70;;;;;;;;;;5154068;27;20455;-73
2022/10/09 14:40:42;;;;;;;2.87;1.90;;;;;;;;;;5153984;27;20452;-72
2022/10/09 14:43:09;;;;;;;6.47;3.20;;;;;;;;;;5153316;27;20454;-72